Time;durP1;ratioP1;P1;durP2;ratioP2;P2;SDS_P1;SDS_P2;PMS_P1;PMS_P2;Temp;Humidity;BMP_temperature;BMP_pressure;BME280_temperature;BME280_humidity;BME280_pressure;Samples;Min_cycle;Max_cycle;Signal;HPM_P1;HPM_P2
2020/12/06 00:00:17;;;;;;;;;64.50;48.25;;;;;4.50;94.75;99525.22;4973750;28;8848;-49
2020/12/06 00:02:43;;;;;;;;;57.00;44.75;;;;;4.51;94.96;99523.41;4972348;28;8887;-50
2020/12/06 00:05:11;;;;;;;;;73.50;50.75;;;;;4.35;94.75;99510.72;4974208;28;8856;-51
2020/12/06 00:07:39;;;;;;;;;63.75;47.00;;;;;4.46;95.33;99518.28;4974071;28;8825;-52
2020/12/06 00:10:09;;;;;;;;;57.75;44.00;;;;;4.33;95.26;99522.34;4972720;28;8863;-52
2020/12/06 00:12:39;;;;;;;;;63.00;45.50;;;;;4.27;95.05;99527.91;4967579;28;8859;-50
2020/12/06 00:15:10;;;;;;;;;53.75;40.50;;;;;4.20;95.12;99521.06;4970999;28;8856;-50
2020/12/06 00:17:37;;;;;;;;;62.00;44.00;;;;;4.16;95.06;99518.53;4967995;28;8836;-51
2020/12/06 00:20:10;;;;;;;;;84.25;64.50;;;;;4.18;95.70;99519.31;4989083;28;9568;-51
2020/12/06 00:22:37;;;;;;;;;68.25;50.25;;;;;4.11;95.47;99520.50;4974067;28;8962;-49
2020/12/06 00:25:05;;;;;;;;;56.50;43.25;;;;;4.12;95.90;99524.03;4974519;28;9585;-53
2020/12/06 00:27:34;;;;;;;;;69.00;47.50;;;;;4.10;95.37;99521.41;4968218;28;9536;-53
2020/12/06 00:30:03;;;;;;;;;60.75;43.75;;;;;4.14;95.38;99523.03;4972563;28;8878;-54
2020/12/06 00:32:30;;;;;;;;;63.75;45.00;;;;;4.02;96.08;99523.50;4970402;28;9565;-53
2020/12/06 00:34:57;;;;;;;;;53.50;35.75;;;;;3.92;95.59;99522.09;4973677;28;8836;-53
2020/12/06 00:37:24;;;;;;;;;53.00;42.75;;;;;3.98;95.53;99524.56;4972251;28;8867;-54
2020/12/06 00:39:51;;;;;;;;;48.75;38.00;;;;;4.08;95.81;99528.59;4973834;28;8852;-53
2020/12/06 00:42:18;;;;;;;;;56.50;43.00;;;;;3.92;95.23;99528.31;4976108;28;9602;-54
2020/12/06 00:44:45;;;;;;;;;65.75;46.00;;;;;3.85;96.03;99525.94;4993516;28;8946;-53
2020/12/06 00:47:12;;;;;;;;;63.25;46.75;;;;;3.73;95.79;99532.53;4972732;28;9479;-53
2020/12/06 00:49:38;;;;;;;;;66.75;46.25;;;;;3.97;96.18;99536.06;4971244;28;8832;-54
2020/12/06 00:52:05;;;;;;;;;50.75;42.75;;;;;3.92;96.04;99538.94;4973095;28;9636;-54
2020/12/06 00:54:32;;;;;;;;;61.75;41.50;;;;;3.86;95.46;99544.44;4973583;28;8844;-49
2020/12/06 00:56:59;;;;;;;;;65.00;47.50;;;;;4.01;95.91;99543.03;4964585;28;8825;-54
2020/12/06 00:59:26;;;;;;;;;61.75;46.50;;;;;3.86;96.23;99543.59;4975697;28;8852;-54
2020/12/06 01:01:53;;;;;;;;;56.25;45.00;;;;;3.96;95.86;99544.97;4969675;28;8863;-53
2020/12/06 01:04:20;;;;;;;;;67.00;46.25;;;;;3.94;96.20;99544.16;4977160;28;8860;-52
2020/12/06 01:06:47;;;;;;;;;58.50;46.00;;;;;3.84;95.54;99551.59;4975641;28;8915;-53
2020/12/06 01:09:13;;;;;;;;;65.25;49.50;;;;;3.83;96.29;99549.88;4977839;28;8845;-51
2020/12/06 01:11:40;;;;;;;;;131.25;100.25;;;;;3.84;96.34;99540.13;4969383;28;8844;-52
2020/12/06 01:14:07;;;;;;;;;156.50;110.75;;;;;3.79;95.80;99539.41;4976509;28;8856;-53
2020/12/06 01:16:34;;;;;;;;;652.25;441.75;;;;;3.87;96.56;99547.97;4970771;28;8847;-52
2020/12/06 01:19:01;;;;;;;;;679.75;458.75;;;;;3.90;96.24;99534.59;4958118;28;8839;-50
2020/12/06 01:21:28;;;;;;;;;360.00;259.25;;;;;3.84;96.36;99540.97;4969251;28;11637;-51
2020/12/06 01:23:55;;;;;;;;;249.25;175.25;;;;;3.71;96.32;99532.63;4977383;28;8812;-53
2020/12/06 01:26:22;;;;;;;;;237.25;180.00;;;;;3.73;96.64;99532.53;4976662;28;8864;-52
2020/12/06 01:28:49;;;;;;;;;220.00;167.50;;;;;3.82;96.29;99529.56;4969862;28;8941;-52
2020/12/06 01:31:15;;;;;;;;;107.00;76.50;;;;;3.81;96.70;99532.25;4958869;28;8951;-54
2020/12/06 01:33:42;;;;;;;;;198.50;148.50;;;;;3.77;96.68;99535.97;4971601;28;9579;-53
2020/12/06 01:36:09;;;;;;;;;178.25;145.75;;;;;3.69;96.32;99531.78;4976904;28;8939;-50
2020/12/06 01:38:36;;;;;;;;;199.50;153.00;;;;;3.74;96.49;99528.97;4977176;28;8837;-52
2020/12/06 01:41:03;;;;;;;;;139.25;108.75;;;;;3.73;96.55;99532.53;4976531;28;8867;-52
2020/12/06 01:43:30;;;;;;;;;104.25;74.00;;;;;3.84;96.63;99530.34;4966876;28;8833;-50
2020/12/06 01:45:56;;;;;;;;;113.75;82.00;;;;;3.80;96.56;99531.41;4976751;28;8962;-48
2020/12/06 01:48:24;;;;;;;;;132.25;96.50;;;;;3.73;96.12;99521.91;4959385;28;8979;-51
2020/12/06 01:50:51;;;;;;;;;121.00;95.00;;;;;3.73;96.30;99514.81;4972667;28;8867;-53
2020/12/06 01:53:19;;;;;;;;;151.50;110.75;;;;;3.69;96.44;99522.97;4971430;28;8844;-50
2020/12/06 01:55:48;;;;;;;;;126.00;90.75;;;;;3.65;96.75;99522.19;4991584;28;8852;-52
2020/12/06 01:58:15;;;;;;;;;107.25;73.50;;;;;3.70;96.04;99524.69;4971814;28;8879;-52
2020/12/06 02:00:42;;;;;;;;;83.25;66.75;;;;;3.65;96.59;99516.88;4976673;28;8848;-52
2020/12/06 02:03:09;;;;;;;;;296.75;212.75;;;;;3.71;96.26;99519.34;4973284;28;8868;-49
2020/12/06 02:05:38;;;;;;;;;254.25;181.00;;;;;3.59;96.48;99519.78;4975887;28;9631;-51
2020/12/06 02:08:05;;;;;;;;;101.00;74.00;;;;;3.61;96.70;99519.72;4961298;28;10113;-53
2020/12/06 02:10:32;;;;;;;;;102.25;65.75;;;;;3.46;96.22;99524.63;4963941;28;8898;-51
2020/12/06 02:12:59;;;;;;;;;108.25;75.75;;;;;3.36;96.17;99519.72;4969615;28;8840;-52
2020/12/06 02:15:26;;;;;;;;;67.25;47.25;;;;;3.30;96.86;99521.66;4976920;28;9023;-52
2020/12/06 02:17:52;;;;;;;;;84.50;61.00;;;;;3.30;96.72;99520.78;4971126;28;8855;-52
2020/12/06 02:20:21;;;;;;;;;72.50;56.75;;;;;3.33;97.02;99522.47;4956698;28;8957;-54
2020/12/06 02:22:48;;;;;;;;;89.00;59.50;;;;;3.33;96.80;99509.22;4964675;28;8942;-51
2020/12/06 02:25:15;;;;;;;;;104.50;70.00;;;;;3.17;96.90;99512.38;4976004;28;8844;-48
2020/12/06 02:27:42;;;;;;;;;108.75;76.00;;;;;3.19;96.81;99518.50;4974389;28;8864;-48
2020/12/06 02:30:08;;;;;;;;;151.75;104.75;;;;;3.18;97.00;99514.09;4976196;28;8847;-51
2020/12/06 02:32:35;;;;;;;;;143.75;98.00;;;;;3.26;96.89;99511.19;4972984;28;8942;-53
2020/12/06 02:35:03;;;;;;;;;198.50;146.25;;;;;3.30;97.34;99508.38;4966749;28;8854;-53
2020/12/06 02:37:31;;;;;;;;;225.50;149.00;;;;;3.36;96.70;99506.44;4964751;28;8849;-49
2020/12/06 02:39:57;;;;;;;;;132.25;94.25;;;;;3.27;96.55;99497.88;4975181;28;8828;-50
2020/12/06 02:42:24;;;;;;;;;138.25;102.25;;;;;3.39;96.54;99495.72;4975808;28;8870;-48
2020/12/06 02:44:51;;;;;;;;;199.50;128.25;;;;;3.40;96.88;99487.72;4969849;28;8922;-50
2020/12/06 02:47:18;;;;;;;;;114.25;85.75;;;;;3.63;96.28;99496.63;4969935;28;8840;-51
2020/12/06 02:49:45;;;;;;;;;189.00;140.00;;;;;3.43;96.52;99492.03;4967299;28;8891;-49
2020/12/06 02:52:11;;;;;;;;;218.00;142.50;;;;;3.38;96.44;99501.97;4967083;28;9735;-50
2020/12/06 02:54:38;;;;;;;;;70.50;47.50;;;;;3.46;96.74;99505.19;4971833;28;8841;-52
2020/12/06 02:57:05;;;;;;;;;170.25;119.50;;;;;3.26;96.21;99503.22;4961042;28;8860;-49
2020/12/06 02:59:32;;;;;;;;;87.75;59.00;;;;;3.05;96.20;99507.50;4970264;28;8831;-51
2020/12/06 03:01:59;;;;;;;;;57.00;46.00;;;;;3.23;96.35;99501.56;4966693;28;9272;-50
2020/12/06 03:04:26;;;;;;;;;96.25;66.00;;;;;3.29;95.97;99509.31;4960534;28;8863;-51
2020/12/06 03:06:53;;;;;;;;;75.25;54.00;;;;;3.39;96.80;99501.88;4967376;28;9646;-50
2020/12/06 03:09:20;;;;;;;;;47.00;40.00;;;;;3.46;96.04;99510.50;4970750;28;8848;-51
2020/12/06 03:11:47;;;;;;;;;62.75;44.50;;;;;3.47;96.16;99521.06;4972164;28;8840;-52
2020/12/06 03:14:14;;;;;;;;;72.50;55.00;;;;;3.54;95.94;99521.72;4965786;28;8848;-54
2020/12/06 03:16:40;;;;;;;;;106.25;73.75;;;;;3.57;96.38;99515.44;4965767;28;8868;-49
2020/12/06 03:19:08;;;;;;;;;118.50;95.00;;;;;3.47;96.19;99501.63;4966624;28;8856;-54
2020/12/06 03:21:35;;;;;;;;;122.50;92.50;;;;;3.58;96.00;99517.16;4972556;28;8881;-52
2020/12/06 03:24:02;;;;;;;;;111.50;77.75;;;;;3.49;96.20;99507.75;4972842;28;8856;-51
2020/12/06 03:26:28;;;;;;;;;99.00;72.50;;;;;3.50;96.32;99510.34;4967008;28;8856;-52
2020/12/06 03:28:55;;;;;;;;;105.25;74.25;;;;;3.58;96.25;99514.50;4973607;28;8864;-49
2020/12/06 03:31:22;;;;;;;;;79.50;58.50;;;;;3.52;96.46;99503.19;4971565;28;8888;-53
2020/12/06 03:33:49;;;;;;;;;72.50;52.00;;;;;3.49;96.07;99503.28;4967345;28;8860;-50
2020/12/06 03:36:16;;;;;;;;;50.75;37.75;;;;;3.47;95.96;99498.97;4963069;28;8843;-53
2020/12/06 03:38:43;;;;;;;;;59.25;41.25;;;;;3.42;96.10;99500.91;4963101;28;9603;-52
2020/12/06 03:41:12;;;;;;;;;56.75;42.75;;;;;3.48;96.10;99495.41;4958597;28;8958;-51
2020/12/06 03:43:39;;;;;;;;;49.75;38.75;;;;;3.50;96.08;99494.44;4966709;28;8863;-51
2020/12/06 03:46:06;;;;;;;;;37.75;32.25;;;;;3.39;96.36;99493.91;4972002;28;8821;-52
2020/12/06 03:48:33;;;;;;;;;44.75;32.50;;;;;3.36;95.88;99485.22;4981276;28;8868;-52
2020/12/06 03:51:00;;;;;;;;;49.75;35.00;;;;;3.45;96.06;99500.78;4966143;28;8852;-52
2020/12/06 03:53:27;;;;;;;;;38.25;30.00;;;;;3.42;96.25;99500.91;4968867;28;8871;-53
2020/12/06 03:55:53;;;;;;;;;40.25;33.75;;;;;3.27;95.92;99497.88;4966058;28;8863;-52
2020/12/06 03:58:20;;;;;;;;;46.75;34.50;;;;;3.39;96.21;99498.38;4966179;28;8844;-50
2020/12/06 04:00:47;;;;;;;;;43.50;33.25;;;;;3.57;95.95;99500.38;4961838;28;8839;-51
2020/12/06 04:03:15;;;;;;;;;56.75;36.25;;;;;3.51;95.50;99489.97;4983098;28;8854;-49
2020/12/06 04:05:42;;;;;;;;;46.00;34.75;;;;;3.62;95.92;99493.09;4967912;28;8857;-50
2020/12/06 04:08:09;;;;;;;;;38.00;31.50;;;;;3.64;95.90;99493.91;4963483;28;8856;-50
2020/12/06 04:10:36;;;;;;;;;48.00;41.00;;;;;3.62;96.13;99495.75;4963083;28;8871;-49
2020/12/06 04:13:02;;;;;;;;;47.50;39.25;;;;;3.67;96.23;99490.28;4963872;28;8933;-52
2020/12/06 04:15:29;;;;;;;;;47.75;38.25;;;;;3.65;96.25;99485.03;4971110;28;8856;-51
2020/12/06 04:17:56;;;;;;;;;43.75;33.00;;;;;3.67;96.39;99496.47;4955291;28;8839;-51
2020/12/06 04:20:23;;;;;;;;;41.75;33.75;;;;;3.64;96.19;99490.41;4965816;28;8820;-50
2020/12/06 04:22:50;;;;;;;;;42.50;30.25;;;;;3.69;96.19;99491.09;4981115;28;8876;-51
2020/12/06 04:25:16;;;;;;;;;43.00;27.25;;;;;3.58;96.00;99496.81;4964676;28;8871;-49
2020/12/06 04:27:43;;;;;;;;;47.25;32.50;;;;;3.60;95.82;99489.63;4967524;28;8833;-48
2020/12/06 04:30:10;;;;;;;;;47.50;32.25;;;;;3.61;96.03;99487.88;4968307;28;8866;-49
2020/12/06 04:32:38;;;;;;;;;42.50;33.75;;;;;3.62;95.60;99493.09;4964164;28;8931;-48
2020/12/06 04:35:05;;;;;;;;;43.00;30.50;;;;;3.56;96.20;99498.66;4959376;28;8889;-52
2020/12/06 04:37:31;;;;;;;;;45.75;31.75;;;;;3.60;95.79;99494.09;4973154;28;8813;-51
2020/12/06 04:39:58;;;;;;;;;106.00;80.75;;;;;3.71;95.96;99491.91;4960333;28;8843;-48
2020/12/06 04:42:26;;;;;;;;;46.00;36.25;;;;;3.65;95.65;99489.47;4970244;28;8980;-49
2020/12/06 04:44:54;;;;;;;;;53.50;31.75;;;;;3.64;95.68;99485.09;4962338;28;8859;-48
2020/12/06 04:47:56;;;;;;;;;42.75;31.00;;;;;3.66;96.10;99488.53;4968160;28;8871;-48
2020/12/06 04:50:46;;;;;;;;;57.75;45.75;;;;;3.65;96.12;99487.69;4948466;28;8860;-49
2020/12/06 04:53:18;;;;;;;;;51.25;37.25;;;;;3.68;95.63;99487.56;4968995;28;8853;-48
2020/12/06 04:55:51;;;;;;;;;47.00;37.00;;;;;3.58;95.42;99490.59;4972726;28;8845;-49
2020/12/06 04:58:28;;;;;;;;;41.75;34.50;;;;;3.61;95.68;99495.84;4969347;28;8895;-50
2020/12/06 05:00:55;;;;;;;;;58.00;39.00;;;;;3.53;95.49;99496.09;4972599;28;8967;-49
2020/12/06 05:03:26;;;;;;;;;48.50;38.75;;;;;3.48;95.59;99492.75;4964897;28;8950;-50
2020/12/06 05:05:54;;;;;;;;;42.25;30.25;;;;;3.52;95.84;99489.03;4976504;28;8861;-48
2020/12/06 05:08:25;;;;;;;;;46.00;30.75;;;;;3.54;96.10;99489.88;4977824;28;8867;-54
2020/12/06 05:10:52;;;;;;;;;41.25;34.00;;;;;3.54;95.25;99499.63;4971850;28;8879;-52
2020/12/06 05:13:19;;;;;;;;;41.75;33.25;;;;;3.47;95.75;99498.97;4970906;28;8863;-54
2020/12/06 05:15:46;;;;;;;;;45.25;35.00;;;;;3.56;95.88;99495.13;4958714;28;8832;-53
2020/12/06 05:18:13;;;;;;;;;48.50;32.25;;;;;3.40;95.73;99494.81;4962678;28;8869;-53
2020/12/06 05:20:40;;;;;;;;;38.75;31.00;;;;;3.36;95.97;99501.13;4968597;28;8855;-53
2020/12/06 05:23:07;;;;;;;;;49.00;38.50;;;;;3.24;96.16;99508.63;4967492;28;8841;-53
2020/12/06 05:25:34;;;;;;;;;60.25;46.25;;;;;3.23;96.17;99509.50;4962543;28;8892;-55
2020/12/06 05:28:01;;;;;;;;;43.25;32.25;;;;;3.34;95.83;99511.78;4977046;28;8934;-55
2020/12/06 05:30:28;;;;;;;;;44.50;33.00;;;;;3.27;95.98;99508.50;4968585;28;8864;-55
2020/12/06 05:32:58;;;;;;;;;49.00;38.25;;;;;3.19;96.10;99507.91;4962071;28;8983;-54
2020/12/06 05:35:24;;;;;;;;;50.75;33.75;;;;;3.14;95.84;99507.19;4963732;28;8860;-53
2020/12/06 05:37:51;;;;;;;;;39.25;30.25;;;;;3.18;96.38;99500.84;4964459;28;8950;-53
2020/12/06 05:40:18;;;;;;;;;33.75;29.75;;;;;3.28;95.89;99504.91;4965363;28;8966;-52
2020/12/06 05:42:46;;;;;;;;;43.00;33.25;;;;;3.27;95.83;99505.00;4969338;28;8860;-55
2020/12/06 05:45:15;;;;;;;;;44.25;33.25;;;;;3.34;95.86;99508.28;4969132;28;8874;-49
2020/12/06 05:47:42;;;;;;;;;42.50;35.00;;;;;3.35;95.82;99504.72;4986189;28;8968;-54
2020/12/06 05:50:09;;;;;;;;;43.25;35.00;;;;;3.42;95.56;99506.22;4968346;28;8863;-54
2020/12/06 05:52:36;;;;;;;;;46.25;38.00;;;;;3.45;95.52;99509.66;4971602;28;8881;-52
2020/12/06 05:55:04;;;;;;;;;45.50;35.50;;;;;3.44;95.41;99515.00;4969664;28;8839;-52
2020/12/06 05:57:43;;;;;;;;;51.00;41.50;;;;;3.50;95.77;99506.81;4964813;28;8849;-51
2020/12/06 06:00:11;;;;;;;;;46.50;40.75;;;;;3.62;95.28;99498.41;4973768;28;8832;-51
2020/12/06 06:02:44;;;;;;;;;55.75;42.50;;;;;3.65;95.16;99497.44;4971466;28;8863;-52
2020/12/06 06:05:19;;;;;;;;;56.25;43.25;;;;;3.63;95.15;99493.97;4966230;28;8841;-54
2020/12/06 06:07:49;;;;;;;;;41.50;36.25;;;;;3.69;94.58;99494.63;4966499;28;8867;-53
2020/12/06 06:10:19;;;;;;;;;175.00;121.00;;;;;3.77;95.05;99494.34;4986905;28;8891;-53
2020/12/06 06:12:53;;;;;;;;;232.50;170.00;;;;;3.86;95.03;99495.78;4971139;28;8950;-50
2020/12/06 06:15:21;;;;;;;;;215.50;159.25;;;;;3.94;94.61;99494.56;4974699;28;8844;-54
2020/12/06 06:17:50;;;;;;;;;170.00;132.50;;;;;3.98;94.03;99500.66;4990701;28;8844;-50
2020/12/06 06:20:17;;;;;;;;;109.50;79.25;;;;;3.97;93.55;99493.59;4967272;28;8848;-51
2020/12/06 06:22:48;;;;;;;;;94.00;71.50;;;;;3.95;94.12;99491.00;4969629;28;8856;-52
2020/12/06 06:25:17;;;;;;;;;98.75;73.25;;;;;3.91;93.71;99502.66;4989239;28;8848;-53
2020/12/06 06:27:44;;;;;;;;;348.75;269.75;;;;;4.02;94.40;99502.25;4969319;28;8903;-52
2020/12/06 06:30:11;;;;;;;;;154.25;113.00;;;;;4.02;93.98;99496.94;4975004;28;8921;-52
2020/12/06 06:32:39;;;;;;;;;194.25;144.00;;;;;4.04;94.21;99503.06;4973030;28;9655;-50
2020/12/06 06:35:09;;;;;;;;;134.75;94.25;;;;;4.07;93.77;99500.28;4970453;28;8855;-51
2020/12/06 06:37:38;;;;;;;;;78.25;52.00;;;;;4.15;93.98;99497.34;4974069;28;8864;-52
2020/12/06 06:40:09;;;;;;;;;106.00;75.25;;;;;4.18;93.32;99498.06;4968341;28;8832;-50
2020/12/06 06:42:39;;;;;;;;;82.75;57.50;;;;;4.20;93.69;99499.81;4971706;28;8902;-51
2020/12/06 06:45:11;;;;;;;;;60.75;43.75;;;;;4.31;93.10;99495.81;4964049;28;9602;-51
2020/12/06 06:47:42;;;;;;;;;76.50;56.75;;;;;4.26;92.44;99491.59;4970148;28;8833;-54
2020/12/06 06:50:11;;;;;;;;;55.25;44.25;;;;;4.38;92.05;99494.66;4974982;28;8840;-53
2020/12/06 06:52:42;;;;;;;;;72.50;50.25;;;;;4.43;92.50;99491.81;4970534;28;8833;-53
2020/12/06 06:55:10;;;;;;;;;66.00;48.00;;;;;4.44;93.02;99493.53;4970863;28;8860;-49
2020/12/06 06:57:40;;;;;;;;;66.50;44.75;;;;;4.52;92.11;99496.75;4962513;28;8841;-53
2020/12/06 07:00:08;;;;;;;;;94.00;68.25;;;;;4.50;92.44;99503.94;4974502;28;8824;-51
2020/12/06 07:02:42;;;;;;;;;51.25;43.00;;;;;4.58;91.57;99503.63;4974771;28;8943;-54
2020/12/06 07:05:12;;;;;;;;;50.75;36.25;;;;;4.60;91.05;99510.59;4969833;28;8856;-54
2020/12/06 07:07:52;;;;;;;;;86.50;61.50;;;;;4.55;90.60;99501.09;4969867;28;9561;-54
2020/12/06 07:10:22;;;;;;;;;89.75;65.00;;;;;4.58;91.38;99509.81;4972418;28;8874;-50
2020/12/06 07:12:51;;;;;;;;;65.50;42.00;;;;;4.67;91.89;99500.59;4967053;28;8836;-52
2020/12/06 07:15:21;;;;;;;;;58.00;47.50;;;;;4.58;91.36;99500.97;4972080;28;8951;-51
2020/12/06 07:17:49;;;;;;;;;70.00;53.25;;;;;4.62;90.93;99497.25;4966421;28;8851;-52
2020/12/06 07:20:18;;;;;;;;;89.75;67.00;;;;;4.74;90.84;99512.72;4964866;28;8867;-50
2020/12/06 07:22:47;;;;;;;;;57.00;42.25;;;;;4.88;90.18;99511.31;4969944;28;8871;-49
2020/12/06 07:25:16;;;;;;;;;69.00;50.50;;;;;4.97;89.88;99509.09;4966102;28;8844;-51
2020/12/06 07:27:44;;;;;;;;;88.50;63.50;;;;;4.95;89.76;99516.31;4965597;28;8970;-50
2020/12/06 07:30:14;;;;;;;;;64.25;48.50;;;;;4.89;90.28;99516.53;4964874;28;8863;-52
2020/12/06 07:32:42;;;;;;;;;95.00;66.50;;;;;4.94;89.95;99519.88;4972905;28;8824;-50
2020/12/06 07:35:11;;;;;;;;;100.75;68.00;;;;;5.08;90.11;99516.63;4970943;28;8845;-49
2020/12/06 07:37:38;;;;;;;;;71.50;48.25;;;;;5.12;90.39;99520.06;4973191;28;8837;-51
2020/12/06 07:40:10;;;;;;;;;160.50;103.25;;;;;5.06;89.55;99522.03;4969644;28;8843;-51
2020/12/06 07:42:38;;;;;;;;;129.25;88.25;;;;;5.20;89.68;99528.56;4985715;28;8840;-53
2020/12/06 07:45:08;;;;;;;;;89.75;65.75;;;;;5.22;89.85;99524.91;4968149;28;8876;-50
2020/12/06 07:47:35;;;;;;;;;91.00;69.25;;;;;5.22;89.35;99524.91;4966504;28;8837;-50
2020/12/06 07:50:05;;;;;;;;;111.50;82.25;;;;;5.34;88.76;99523.53;4960566;28;8981;-53
2020/12/06 07:52:38;;;;;;;;;111.00;77.00;;;;;5.46;88.27;99528.31;4968856;28;8836;-50
2020/12/06 07:55:10;;;;;;;;;64.00;46.00;;;;;5.45;88.78;99518.63;4970604;28;8871;-50
2020/12/06 07:57:46;;;;;;;;;68.25;49.25;;;;;5.53;88.87;99528.06;4971877;28;8868;-55
2020/12/06 08:00:29;;;;;;;;;52.25;47.50;;;;;5.61;88.08;99515.25;4972326;28;8863;-53
2020/12/06 08:03:00;;;;;;;;;57.00;45.25;;;;;5.71;87.51;99525.47;4968930;28;8845;-53
2020/12/06 08:05:30;;;;;;;;;75.50;55.25;;;;;5.73;87.76;99520.06;4966208;28;8850;-53
2020/12/06 08:08:06;;;;;;;;;102.25;82.50;;;;;5.84;87.56;99515.09;4964838;28;9067;-51
2020/12/06 08:10:34;;;;;;;;;220.25;173.00;;;;;6.12;87.44;99521.91;4960157;28;8835;-48
2020/12/06 08:13:02;;;;;;;;;119.25;94.75;;;;;6.11;87.58;99522.84;4978372;28;8967;-47
2020/12/06 08:15:30;;;;;;;;;135.25;111.50;;;;;6.33;87.57;99520.03;4967203;28;8941;-51
2020/12/06 08:17:57;;;;;;;;;82.00;60.50;;;;;6.24;85.73;99526.66;4980287;28;8846;-49
2020/12/06 08:20:27;;;;;;;;;40.33;33.33;;;;;6.25;86.62;99519.53;4953209;28;8869;-49
2020/12/06 08:22:57;;;;;;;;;93.50;69.75;;;;;6.51;85.19;99518.31;4979288;28;8851;-51
2020/12/06 08:25:45;;;;;;;;;127.75;102.25;;;;;6.58;85.80;99517.94;4969921;28;8860;-50
2020/12/06 08:28:19;;;;;;;;;34.67;27.67;;;;;6.51;85.19;99512.97;4968945;28;8860;-52
2020/12/06 08:30:46;;;;;;;;;133.00;105.75;;;;;6.57;85.73;99515.34;4969521;28;8848;-50
2020/12/06 08:33:13;;;;;;;;;88.50;65.50;;;;;6.60;85.21;99523.19;4960650;28;8840;-49
2020/12/06 08:35:41;;;;;;;;;34.67;27.00;;;;;6.67;84.41;99529.09;4965207;28;8879;-48
2020/12/06 08:38:21;;;;;;;;;90.25;64.50;;;;;6.73;85.74;99524.31;4968281;28;9624;-50
2020/12/06 08:41:13;;;;;;;;;44.00;30.67;;;;;6.69;84.70;99524.53;4970625;28;8833;-51
2020/12/06 08:43:52;;;;;;;;;102.00;68.00;;;;;6.77;85.66;99525.91;4961023;28;8964;-52
2020/12/06 08:46:24;;;;;;;;;105.50;81.75;;;;;6.97;85.41;99532.94;4966895;28;8859;-51
2020/12/06 08:49:13;;;;;;;;;82.25;60.25;;;;;6.99;84.53;99519.53;4964029;28;8875;-53
2020/12/06 08:51:49;;;;;;;;;36.67;32.67;;;;;6.85;85.05;99516.69;4967633;28;8863;-50
2020/12/06 08:54:32;;;;;;;;;34.67;28.00;;;;;6.91;85.37;99511.88;4986283;28;8880;-51
2020/12/06 08:57:10;;;;;;;;;46.33;39.00;;;;;6.93;85.24;99503.81;4964510;28;8858;-51
2020/12/06 08:59:42;;;;;;;;;47.00;38.67;;;;;7.05;84.31;99503.19;4967343;28;8894;-50
2020/12/06 09:02:10;;;;;;;;;31.67;27.00;;;;;7.03;84.66;99505.09;4961489;28;8845;-52
2020/12/06 09:04:37;;;;;;;;;59.33;44.00;;;;;7.19;84.23;99505.19;4980445;28;9583;-50
2020/12/06 09:07:06;;;;;;;;;71.33;46.33;;;;;7.24;83.89;99503.13;4963593;28;8863;-52
2020/12/06 09:09:33;;;;;;;;;46.33;35.00;;;;;7.37;83.41;99506.03;4964763;28;8868;-49
2020/12/06 09:12:02;;;;;;;;;39.33;26.67;;;;;7.33;83.98;99494.66;4963972;28;8847;-48
2020/12/06 09:14:29;;;;;;;;;63.67;47.00;;;;;7.68;83.66;99497.28;4968466;28;8843;-49
2020/12/06 09:16:56;;;;;;;;;61.00;44.33;;;;;7.55;83.06;99486.38;4965631;28;8975;-52
2020/12/06 09:19:23;;;;;;;;;97.75;68.75;;;;;7.77;83.17;99490.63;4971534;28;8922;-53
2020/12/06 09:21:50;;;;;;;;;74.00;50.67;;;;;7.80;83.05;99491.31;4975995;28;8939;-52
2020/12/06 09:24:17;;;;;;;;;74.33;51.33;;;;;7.83;82.27;99479.59;4967426;28;9033;-50
2020/12/06 09:26:44;;;;;;;;;77.50;57.50;;;;;8.11;81.18;99484.31;4975209;28;8882;-50
2020/12/06 09:29:11;;;;;;;;;52.33;36.33;;;;;8.02;81.29;99482.13;4975784;28;8856;-50
2020/12/06 09:31:37;;;;;;;;;77.00;53.33;;;;;8.32;80.73;99479.56;4964865;28;8955;-51
2020/12/06 09:34:04;;;;;;;;;49.67;37.33;;;;;8.23;80.24;99477.41;4967607;28;8848;-50
2020/12/06 09:36:34;;;;;;;;;69.00;54.00;;;;;8.56;80.30;99475.56;4972351;28;8938;-51
2020/12/06 09:39:02;;;;;;;;;44.00;34.67;;;;;8.37;80.16;99474.81;4971545;28;8837;-53
2020/12/06 09:41:29;;;;;;;;;76.00;55.67;;;;;8.70;79.75;99477.44;4968051;28;8844;-53
2020/12/06 09:43:56;;;;;;;;;34.00;27.00;;;;;8.58;79.83;99470.09;4989797;28;8895;-54
2020/12/06 09:46:23;;;;;;;;;38.00;27.67;;;;;8.91;78.93;99461.97;4971827;28;8971;-51
2020/12/06 09:48:50;;;;;;;;;34.67;26.33;;;;;8.97;79.34;99453.56;4974891;28;8856;-54
2020/12/06 09:51:17;;;;;;;;;60.00;43.00;;;;;9.01;78.31;99455.13;4969738;28;8857;-51
2020/12/06 09:53:48;;;;;;;;;73.00;54.67;;;;;8.99;79.95;99451.66;4963277;28;8847;-53
2020/12/06 09:56:15;;;;;;;;;40.67;36.00;;;;;8.98;78.79;99449.94;4965103;28;8853;-54
2020/12/06 09:58:41;;;;;;;;;29.67;25.00;;;;;9.04;77.90;99446.03;4966540;28;9573;-53
2020/12/06 10:01:08;;;;;;;;;73.33;54.00;;;;;9.48;79.10;99430.91;4973292;28;8836;-52
2020/12/06 10:03:37;;;;;;;;;47.67;28.00;;;;;9.42;76.24;99426.78;4964820;28;9540;-52
2020/12/06 10:06:03;;;;;;;;;59.67;40.33;;;;;9.31;77.98;99414.03;4964015;28;8894;-54
2020/12/06 10:08:30;;;;;;;;;62.00;45.00;;;;;9.36;76.83;99414.63;4974782;28;8918;-54
2020/12/06 10:10:57;;;;;;;;;30.67;25.00;;;;;9.39;76.84;99414.44;4974570;28;8962;-53
2020/12/06 10:13:24;;;;;;;;;38.00;27.00;;;;;9.31;77.06;99414.03;4966448;28;8902;-54
2020/12/06 10:15:51;;;;;;;;;43.67;32.67;;;;;9.33;77.91;99422.00;4968829;28;8934;-53
2020/12/06 10:18:18;;;;;;;;;36.00;25.67;;;;;9.30;77.23;99415.00;4973279;28;8857;-54
2020/12/06 10:20:44;;;;;;;;;32.67;21.00;;;;;9.36;77.17;99411.94;4974129;28;8966;-54
2020/12/06 10:23:11;;;;;;;;;29.00;22.33;;;;;9.30;76.78;99417.69;4970198;28;8843;-49
2020/12/06 10:25:38;;;;;;;;;20.00;10.67;;;;;9.30;76.88;99411.47;4973069;28;9585;-53
2020/12/06 10:28:05;;;;;;;;;27.67;23.00;;;;;9.36;77.24;99401.22;4967443;28;8852;-49
2020/12/06 10:30:32;;;;;;;;;22.33;20.00;;;;;9.25;76.87;99392.13;4966185;28;8859;-51
2020/12/06 10:33:00;;;;;;;;;51.67;38.00;;;;;9.44;76.77;99392.72;4969600;28;8858;-55
2020/12/06 10:35:26;;;;;;;;;31.67;28.00;;;;;9.54;76.47;99393.03;4973234;28;8864;-53
2020/12/06 10:37:53;;;;;;;;;23.67;20.33;;;;;9.41;76.69;99392.91;4964223;28;8863;-52
2020/12/06 10:40:20;;;;;;;;;25.33;20.33;;;;;9.42;76.30;99398.16;4961709;28;8853;-53
2020/12/06 10:42:48;;;;;;;;;25.67;23.00;;;;;9.48;76.98;99398.75;4963689;28;8902;-53
2020/12/06 10:45:15;;;;;;;;;25.67;20.33;;;;;9.66;76.60;99400.28;4967599;28;8852;-54
2020/12/06 10:47:42;;;;;;;;;21.33;19.00;;;;;9.56;77.38;99393.81;4964107;28;11618;-51
2020/12/06 10:50:10;;;;;;;;;27.00;21.00;;;;;10.04;74.56;99386.28;4974076;28;11582;-55
2020/12/06 10:52:36;;;;;;;;;24.00;16.33;;;;;9.93;75.73;99384.31;4970561;28;11584;-55
2020/12/06 10:55:04;;;;;;;;;23.33;22.67;;;;;10.11;74.66;99377.75;4965105;28;11635;-54
2020/12/06 10:57:31;;;;;;;;;23.00;16.00;;;;;10.22;74.78;99362.78;4973238;28;11691;-54
2020/12/06 10:59:58;;;;;;;;;22.50;16.50;;;;;10.60;72.71;99351.34;4973501;28;11615;-52
2020/12/06 11:02:25;;;;;;;;;27.75;19.00;;;;;10.57;74.06;99357.78;4969028;28;11696;-52
2020/12/06 11:04:52;;;;;;;;;25.00;21.25;;;;;10.81;72.67;99354.41;4969906;28;11592;-52
2020/12/06 11:07:19;;;;;;;;;26.50;19.25;;;;;10.57;73.93;99356.94;4973722;28;11603;-50
2020/12/06 11:09:45;;;;;;;;;26.75;21.75;;;;;10.91;72.57;99355.50;4973432;28;11610;-55
2020/12/06 11:12:12;;;;;;;;;21.50;16.25;;;;;10.67;72.81;99352.66;4973436;28;11668;-54
2020/12/06 11:14:39;;;;;;;;;25.50;20.75;;;;;10.69;72.76;99351.59;4972542;28;11640;-53
2020/12/06 11:17:06;;;;;;;;;26.00;20.75;;;;;10.79;73.11;99346.44;4973560;28;11683;-53
2020/12/06 11:19:33;;;;;;;;;23.00;20.75;;;;;10.75;72.66;99344.97;4972304;28;11585;-58
2020/12/06 11:22:00;;;;;;;;;17.50;15.50;;;;;10.88;72.05;99343.16;4973886;28;11715;-57
2020/12/06 11:24:27;;;;;;;;;27.25;19.50;;;;;11.04;72.11;99331.34;4969644;28;11623;-58
2020/12/06 11:26:54;;;;;;;;;32.25;21.25;;;;;10.93;71.91;99334.78;4972871;28;11596;-57
2020/12/06 11:29:21;;;;;;;;;20.00;13.00;;;;;10.75;73.36;99337.75;4972287;28;11605;-58
2020/12/06 11:31:48;;;;;;;;;18.75;14.75;;;;;10.59;73.67;99334.38;4974245;28;11653;-56
2020/12/06 11:34:15;;;;;;;;;23.50;14.00;;;;;10.42;73.69;99329.28;4973304;28;11733;-56